KAFW/AFW METAR and TAF weather

Enter ICAO airport designator
Station Type Date Time Source
KAFW METAR 2018/07/21 22:53 UTC NOAA

KAFW 212253Z 23012KT 10SM BKN300 43/12 A2986 RMK AO2 SLP090 T04330117


Station Type Date Time Source
KAFW Decoded METAR 2018/07/21 22:53 UTC NOAA

FORT WORTH ALLIANCE AIRPORT, TX, United States (KAFW) 32-59N 097-19W 233M
Jul 21, 2018 - 06:53 PM EDT / 2018.07.21 2253 UTC
Wind: from the SW (230 degrees) at 14 MPH (12 KT):0
Visibility: 10 mile(s):0
Sky conditions: mostly cloudy
Temperature: 109.9 F (43.3 C)
Dew Point: 53.1 F (11.7 C)
Relative Humidity: 15%
Pressure (altimeter): 29.86 in. Hg (1011 hPa)
ob: KAFW 212253Z 23012KT 10SM BKN300 43/12 A2986 RMK AO2 SLP090 T04330117
cycle: 23

Station Type Date Time Source
KAFW TAF 2018/07/21 21:09 UTC NOAA

TAF
AMD KAFW 212105Z 2121/2218 23010KT P6SM SCT300
FM220100 18006KT P6SM SCT300
FM221200 25008KT P6SM FEW300


Example: see airport list